Anzahl Datensätze: 48
min. Temperatur: 3.9 °C
max. Temperatur: 12.7 °C
max. Windgeschwindigkeit: 30.6 km/h
Niederschlagsumme: 0.0 mm
| Datum |
Zeit |
Temp °C |
Feuchte % |
Taupunkt °C |
Luftdruck hPa |
Wind km/h |
Windrichtung |
Strahlung w/m² |
Niederschlag mm |
|---|---|---|---|---|---|---|---|---|---|
| 05.05.2025 | 00:00 | 7.9 | 80 | 4.7 | 1015.0 | 0.0 | NO | 0 | 0.0 |
| 05.05.2025 | 00:30 | 7.5 | 80 | 4.3 | 1015.2 | 1.4 | NO | 0 | 0.0 |
| 05.05.2025 | 01:00 | 6.9 | 83 | 4.2 | 1015.4 | 3.2 | NO | 0 | 0.0 |
| 05.05.2025 | 01:30 | 6.7 | 85 | 4.4 | 1015.4 | 3.2 | NO | 0 | 0.0 |
| 05.05.2025 | 02:00 | 6.6 | 85 | 4.3 | 1015.3 | 1.4 | NO | 0 | 0.0 |
| 05.05.2025 | 02:30 | 6.5 | 85 | 4.2 | 1015.3 | 1.4 | NO | 0 | 0.0 |
| 05.05.2025 | 03:00 | 6.3 | 85 | 4.0 | 1015.2 | 1.4 | NO | 0 | 0.0 |
| 05.05.2025 | 03:30 | 5.8 | 84 | 3.3 | 1015.2 | 1.4 | NO | 0 | 0.0 |
| 05.05.2025 | 04:00 | 4.9 | 86 | 2.8 | 1015.1 | 3.2 | NO | 0 | 0.0 |
| 05.05.2025 | 04:30 | 4.2 | 88 | 2.4 | 1015.2 | 3.2 | NO | 0 | 0.0 |
| 05.05.2025 | 05:00 | 3.9 | 89 | 2.3 | 1015.2 | 4.7 | NO | 0 | 0.0 |
| 05.05.2025 | 05:30 | 4.3 | 90 | 2.8 | 1015.3 | 1.4 | NO | 0 | 0.0 |
| 05.05.2025 | 06:00 | 4.7 | 90 | 3.2 | 1015.3 | 3.2 | NO | 0 | 0.0 |
| 05.05.2025 | 06:30 | 5.3 | 91 | 4.0 | 1015.2 | 0.0 | NO | 0 | 0.0 |
| 05.05.2025 | 07:00 | 6.1 | 88 | 4.3 | 1015.4 | 0.0 | NO | 14 | 0.0 |
| 05.05.2025 | 07:30 | 6.8 | 84 | 4.3 | 1015.5 | 1.4 | NO | 32 | 0.0 |
| 05.05.2025 | 08:00 | 7.7 | 83 | 5.0 | 1015.6 | 3.2 | OSO | 98 | 0.0 |
| 05.05.2025 | 08:30 | 8.2 | 81 | 5.1 | 1015.8 | 4.7 | SO | 98 | 0.0 |
| 05.05.2025 | 09:00 | 8.6 | 79 | 5.2 | 1016.2 | 3.2 | OSO | 188 | 0.0 |
| 05.05.2025 | 09:30 | 9.6 | 75 | 5.4 | 1016.1 | 3.2 | OSO | 294 | 0.0 |
| 05.05.2025 | 10:00 | 10.0 | 70 | 4.8 | 1016.2 | 9.7 | OSO | 281 | 0.0 |
| 05.05.2025 | 10:30 | 10.6 | 66 | 4.5 | 1016.2 | 4.7 | S | 160 | 0.0 |
| 05.05.2025 | 11:00 | 10.7 | 65 | 4.4 | 1016.1 | 7.9 | OSO | 220 | 0.0 |
| 05.05.2025 | 11:30 | 11.1 | 58 | 3.1 | 1016.2 | 6.5 | OSO | 359 | 0.0 |
| 05.05.2025 | 12:00 | 11.5 | 61 | 4.2 | 1016.4 | 3.2 | OSO | 183 | 0.0 |
| 05.05.2025 | 12:30 | 11.2 | 61 | 4.0 | 1016.6 | 4.7 | OSO | 253 | 0.0 |
| 05.05.2025 | 13:00 | 11.2 | 63 | 4.4 | 1016.8 | 4.7 | SO | 267 | 0.0 |
| 05.05.2025 | 13:30 | 11.6 | 63 | 4.8 | 1016.8 | 6.5 | SO | 329 | 0.0 |
| 05.05.2025 | 14:00 | 11.6 | 60 | 4.1 | 1016.9 | 6.5 | OSO | 367 | 0.0 |
| 05.05.2025 | 14:30 | 12.0 | 61 | 4.7 | 1016.8 | 4.7 | NW | 332 | 0.0 |
| 05.05.2025 | 15:00 | 12.0 | 59 | 4.2 | 1016.7 | 7.9 | SO | 933 | 0.0 |
| 05.05.2025 | 15:30 | 12.1 | 58 | 4.1 | 1016.7 | 7.9 | SSO | 591 | 0.0 |
| 05.05.2025 | 16:00 | 12.5 | 56 | 4.0 | 1016.6 | 4.7 | SSO | 916 | 0.0 |
| 05.05.2025 | 16:30 | 12.4 | 59 | 4.6 | 1016.6 | 4.7 | NO | 338 | 0.0 |
| 05.05.2025 | 17:00 | 12.4 | 57 | 4.1 | 1016.7 | 7.9 | SO | 181 | 0.0 |
| 05.05.2025 | 17:30 | 12.7 | 60 | 5.1 | 1016.7 | 4.7 | NO | 123 | 0.0 |
| 05.05.2025 | 18:00 | 12.4 | 62 | 5.3 | 1016.9 | 4.7 | NO | 116 | 0.0 |
| 05.05.2025 | 18:30 | 12.4 | 63 | 5.6 | 1017.0 | 6.5 | NO | 95 | 0.0 |
| 05.05.2025 | 19:00 | 12.3 | 62 | 5.2 | 1017.1 | 1.4 | NO | 69 | 0.0 |
| 05.05.2025 | 19:30 | 12.3 | 61 | 5.0 | 1017.3 | 3.2 | NO | 44 | 0.0 |
| 05.05.2025 | 20:00 | 12.1 | 63 | 5.3 | 1017.4 | 1.4 | NO | 19 | 0.0 |
| 05.05.2025 | 20:30 | 11.9 | 64 | 5.3 | 1017.6 | 0.0 | NO | 9 | 0.0 |
| 05.05.2025 | 21:00 | 11.1 | 65 | 4.8 | 1017.8 | 0.0 | NO | 0 | 0.0 |
| 05.05.2025 | 21:30 | 10.3 | 67 | 4.4 | 1018.2 | 0.0 | NO | 0 | 0.0 |
| 05.05.2025 | 22:00 | 9.5 | 71 | 4.5 | 1018.5 | 0.0 | NO | 0 | 0.0 |
| 05.05.2025 | 22:30 | 8.9 | 74 | 4.5 | 1018.7 | 0.0 | NO | 0 | 0.0 |
| 05.05.2025 | 23:00 | 8.7 | 76 | 4.7 | 1018.8 | 1.4 | NO | 0 | 0.0 |
| 05.05.2025 | 23:30 | 9.1 | 77 | 5.3 | 1018.8 | 1.4 | NO | 0 | 0.0 |